sensor_id;sensor_type;location;lat;lon;timestamp;pressure;altitude;pressure_sealevel;temperature;humidity
74893;BME280;63446;56.272;43.922;2023-12-28T00:01:39;99407.28;;;-1.48;60.88
74893;BME280;63446;56.272;43.922;2023-12-28T00:04:05;99405.28;;;-1.45;60.89
74893;BME280;63446;56.272;43.922;2023-12-28T00:06:31;99422.19;;;-1.43;60.92
74893;BME280;63446;56.272;43.922;2023-12-28T00:08:57;99412.59;;;-1.42;60.76
74893;BME280;63446;56.272;43.922;2023-12-28T00:11:25;99430.28;;;-1.33;60.78
74893;BME280;63446;56.272;43.922;2023-12-28T00:13:51;99430.03;;;-1.31;60.76
74893;BME280;63446;56.272;43.922;2023-12-28T00:16:17;99425.69;;;-1.31;60.79
74893;BME280;63446;56.272;43.922;2023-12-28T00:18:43;99410.75;;;-1.35;60.78
74893;BME280;63446;56.272;43.922;2023-12-28T00:21:08;99431.19;;;-1.27;60.84
74893;BME280;63446;56.272;43.922;2023-12-28T00:23:34;99435.59;;;-1.28;60.57
74893;BME280;63446;56.272;43.922;2023-12-28T00:26:00;99429.63;;;-1.28;60.68
74893;BME280;63446;56.272;43.922;2023-12-28T00:28:26;99430.41;;;-1.28;60.76
74893;BME280;63446;56.272;43.922;2023-12-28T00:30:53;99420.13;;;-1.34;60.77
74893;BME280;63446;56.272;43.922;2023-12-28T00:33:19;99419.13;;;-1.33;60.75
74893;BME280;63446;56.272;43.922;2023-12-28T00:35:44;99436.19;;;-1.26;60.65
74893;BME280;63446;56.272;43.922;2023-12-28T00:38:10;99434.38;;;-1.25;60.62
74893;BME280;63446;56.272;43.922;2023-12-28T00:40:36;99419.69;;;-1.31;60.62
74893;BME280;63446;56.272;43.922;2023-12-28T00:43:03;99432.34;;;-1.23;60.74
74893;BME280;63446;56.272;43.922;2023-12-28T00:45:30;99437.53;;;-1.23;60.62
74893;BME280;63446;56.272;43.922;2023-12-28T00:47:56;99441.56;;;-1.27;60.77
74893;BME280;63446;56.272;43.922;2023-12-28T00:50:22;99418.53;;;-1.35;60.66
74893;BME280;63446;56.272;43.922;2023-12-28T00:52:48;99424.28;;;-1.33;60.69
74893;BME280;63446;56.272;43.922;2023-12-28T00:55:14;99440.78;;;-1.28;60.66
74893;BME280;63446;56.272;43.922;2023-12-28T00:57:40;99438.84;;;-1.32;60.73
74893;BME280;63446;56.272;43.922;2023-12-28T01:00:08;99441.00;;;-1.29;60.64
74893;BME280;63446;56.272;43.922;2023-12-28T01:02:33;99422.13;;;-1.36;60.67
74893;BME280;63446;56.272;43.922;2023-12-28T01:04:59;99438.84;;;-1.32;60.68
74893;BME280;63446;56.272;43.922;2023-12-28T01:07:26;99448.19;;;-1.31;60.77
74893;BME280;63446;56.272;43.922;2023-12-28T01:09:52;99459.16;;;-1.29;60.66
74893;BME280;63446;56.272;43.922;2023-12-28T01:12:19;99459.38;;;-1.31;60.68
74893;BME280;63446;56.272;43.922;2023-12-28T01:14:45;99447.25;;;-1.37;60.66
74893;BME280;63446;56.272;43.922;2023-12-28T01:17:10;99463.53;;;-1.30;60.73
74893;BME280;63446;56.272;43.922;2023-12-28T01:19:37;99451.22;;;-1.34;60.66
74893;BME280;63446;56.272;43.922;2023-12-28T01:22:04;99454.63;;;-1.34;60.60
74893;BME280;63446;56.272;43.922;2023-12-28T01:24:32;99467.31;;;-1.26;60.63
74893;BME280;63446;56.272;43.922;2023-12-28T01:26:58;99469.25;;;-1.21;60.57
74893;BME280;63446;56.272;43.922;2023-12-28T01:29:23;99460.88;;;-1.23;60.62
74893;BME280;63446;56.272;43.922;2023-12-28T01:31:49;99466.78;;;-1.16;60.62
74893;BME280;63446;56.272;43.922;2023-12-28T01:34:15;99469.03;;;-1.19;60.49
74893;BME280;63446;56.272;43.922;2023-12-28T01:36:41;99471.56;;;-1.13;60.45
74893;BME280;63446;56.272;43.922;2023-12-28T01:39:10;99490.09;;;-1.09;60.52
74893;BME280;63446;56.272;43.922;2023-12-28T01:41:37;99497.63;;;-1.08;60.42
74893;BME280;63446;56.272;43.922;2023-12-28T01:44:03;99488.09;;;-1.07;60.48
74893;BME280;63446;56.272;43.922;2023-12-28T01:46:28;99483.88;;;-1.08;60.51
74893;BME280;63446;56.272;43.922;2023-12-28T01:48:55;99496.66;;;-1.07;60.53
74893;BME280;63446;56.272;43.922;2023-12-28T01:51:23;99486.09;;;-1.12;60.49
74893;BME280;63446;56.272;43.922;2023-12-28T01:53:51;99480.72;;;-1.10;60.54
74893;BME280;63446;56.272;43.922;2023-12-28T01:56:19;99494.44;;;-1.03;60.48
74893;BME280;63446;56.272;43.922;2023-12-28T01:58:46;99501.19;;;-1.02;60.47
74893;BME280;63446;56.272;43.922;2023-12-28T02:01:14;99501.75;;;-1.00;60.48
74893;BME280;63446;56.272;43.922;2023-12-28T02:03:40;99498.19;;;-0.99;60.53
74893;BME280;63446;56.272;43.922;2023-12-28T02:06:07;99503.94;;;-0.97;60.52
74893;BME280;63446;56.272;43.922;2023-12-28T02:08:33;99503.94;;;-0.97;60.49
74893;BME280;63446;56.272;43.922;2023-12-28T02:10:59;99511.50;;;-0.95;60.52
74893;BME280;63446;56.272;43.922;2023-12-28T02:13:25;99506.75;;;-0.99;60.49
74893;BME280;63446;56.272;43.922;2023-12-28T02:15:57;99511.50;;;-0.95;60.46
74893;BME280;63446;56.272;43.922;2023-12-28T02:18:30;99529.66;;;-0.95;60.51
74893;BME280;63446;56.272;43.922;2023-12-28T02:21:02;99527.63;;;-0.93;60.50
74893;BME280;63446;56.272;43.922;2023-12-28T02:23:28;99531.03;;;-0.93;60.45
74893;BME280;63446;56.272;43.922;2023-12-28T02:25:54;99532.41;;;-0.90;60.45
74893;BME280;63446;56.272;43.922;2023-12-28T02:28:20;99531.41;;;-0.89;60.37
74893;BME280;63446;56.272;43.922;2023-12-28T02:30:46;99540.56;;;-0.87;60.34
74893;BME280;63446;56.272;43.922;2023-12-28T02:36:18;99537.75;;;-0.85;60.38
74893;BME280;63446;56.272;43.922;2023-12-28T02:38:48;99545.31;;;-0.84;60.42
74893;BME280;63446;56.272;43.922;2023-12-28T02:41:15;99545.31;;;-0.84;60.40
74893;BME280;63446;56.272;43.922;2023-12-28T02:43:42;99546.13;;;-0.83;60.42
74893;BME280;63446;56.272;43.922;2023-12-28T02:46:08;99552.31;;;-0.84;60.45
74893;BME280;63446;56.272;43.922;2023-12-28T02:48:34;99550.50;;;-0.84;60.38
74893;BME280;63446;56.272;43.922;2023-12-28T02:51:00;99558.28;;;-0.84;60.46
74893;BME280;63446;56.272;43.922;2023-12-28T02:53:25;99546.53;;;-0.86;60.56
74893;BME280;63446;56.272;43.922;2023-12-28T02:55:51;99555.28;;;-0.81;60.54
74893;BME280;63446;56.272;43.922;2023-12-28T02:58:17;99556.88;;;-0.80;60.63
74893;BME280;63446;56.272;43.922;2023-12-28T03:00:43;99557.66;;;-0.79;60.64
74893;BME280;63446;56.272;43.922;2023-12-28T03:03:09;99542.13;;;-0.86;60.60
74893;BME280;63446;56.272;43.922;2023-12-28T03:05:35;99562.63;;;-0.78;60.59
74893;BME280;63446;56.272;43.922;2023-12-28T03:08:00;99545.31;;;-0.84;60.69
74893;BME280;63446;56.272;43.922;2023-12-28T03:10:26;99560.03;;;-0.78;60.73
74893;BME280;63446;56.272;43.922;2023-12-28T03:12:53;99544.53;;;-0.84;60.75
74893;BME280;63446;56.272;43.922;2023-12-28T03:15:19;99553.25;;;-0.79;60.68
74893;BME280;63446;56.272;43.922;2023-12-28T03:17:44;99550.50;;;-0.84;60.80
74893;BME280;63446;56.272;43.922;2023-12-28T03:20:10;99554.03;;;-0.78;60.60
74893;BME280;63446;56.272;43.922;2023-12-28T03:22:37;99566.22;;;-0.79;60.64
74893;BME280;63446;56.272;43.922;2023-12-28T03:25:04;99561.03;;;-0.79;60.47
74893;BME280;63446;56.272;43.922;2023-12-28T03:27:33;99568.81;;;-0.79;60.71
74893;BME280;63446;56.272;43.922;2023-12-28T03:29:58;99570.84;;;-0.81;60.63
74893;BME280;63446;56.272;43.922;2023-12-28T03:32:24;99564.47;;;-0.85;60.77
74893;BME280;63446;56.272;43.922;2023-12-28T03:34:50;99574.00;;;-0.79;60.67
74893;BME280;63446;56.272;43.922;2023-12-28T03:37:18;99564.28;;;-0.83;60.69
74893;BME280;63446;56.272;43.922;2023-12-28T03:39:43;99571.19;;;-0.77;60.74
74893;BME280;63446;56.272;43.922;2023-12-28T03:42:12;99568.81;;;-0.79;60.76
74893;BME280;63446;56.272;43.922;2023-12-28T03:44:37;99576.38;;;-0.77;60.73
74893;BME280;63446;56.272;43.922;2023-12-28T03:47:03;99571.78;;;-0.75;60.62
74893;BME280;63446;56.272;43.922;2023-12-28T03:49:29;99575.97;;;-0.74;60.77
74893;BME280;63446;56.272;43.922;2023-12-28T03:51:55;99587.94;;;-0.73;60.76
74893;BME280;63446;56.272;43.922;2023-12-28T03:54:21;99591.09;;;-0.71;60.85
74893;BME280;63446;56.272;43.922;2023-12-28T03:56:47;99591.69;;;-0.69;60.78
74893;BME280;63446;56.272;43.922;2023-12-28T03:59:13;99590.88;;;-0.69;60.71
74893;BME280;63446;56.272;43.922;2023-12-28T04:01:41;99597.88;;;-0.70;60.87
74893;BME280;63446;56.272;43.922;2023-12-28T04:04:06;99600.47;;;-0.70;60.77
74893;BME280;63446;56.272;43.922;2023-12-28T04:06:32;99599.47;;;-0.69;60.75
74893;BME280;63446;56.272;43.922;2023-12-28T04:08:58;99598.66;;;-0.69;60.87
74893;BME280;63446;56.272;43.922;2023-12-28T04:11:24;99594.28;;;-0.69;60.84
74893;BME280;63446;56.272;43.922;2023-12-28T04:13:51;99602.28;;;-0.70;60.82
74893;BME280;63446;56.272;43.922;2023-12-28T04:16:18;99608.25;;;-0.70;60.95
74893;BME280;63446;56.272;43.922;2023-12-28T04:18:44;99612.88;;;-0.72;60.97
74893;BME280;63446;56.272;43.922;2023-12-28T04:21:12;99604.91;;;-0.77;60.91
74893;BME280;63446;56.272;43.922;2023-12-28T04:23:41;99617.66;;;-0.69;60.97
74893;BME280;63446;56.272;43.922;2023-12-28T04:26:08;99622.00;;;-0.69;60.97
74893;BME280;63446;56.272;43.922;2023-12-28T04:28:35;99628.22;;;-0.70;61.17
74893;BME280;63446;56.272;43.922;2023-12-28T04:31:05;99627.44;;;-0.71;61.29
74893;BME280;63446;56.272;43.922;2023-12-28T04:33:33;99629.22;;;-0.71;61.33
74893;BME280;63446;56.272;43.922;2023-12-28T04:36:04;99632.63;;;-0.71;61.43
74893;BME280;63446;56.272;43.922;2023-12-28T04:38:31;99616.16;;;-0.83;61.39
74893;BME280;63446;56.272;43.922;2023-12-28T04:40:59;99628.63;;;-0.74;61.48
74893;BME280;63446;56.272;43.922;2023-12-28T04:43:25;99627.06;;;-0.75;61.59
74893;BME280;63446;56.272;43.922;2023-12-28T04:45:51;99636.41;;;-0.74;61.65
74893;BME280;63446;56.272;43.922;2023-12-28T04:48:17;99634.06;;;-0.75;61.62
74893;BME280;63446;56.272;43.922;2023-12-28T04:50:49;99625.66;;;-0.77;61.54
74893;BME280;63446;56.272;43.922;2023-12-28T04:53:15;99630.28;;;-0.79;61.72
74893;BME280;63446;56.272;43.922;2023-12-28T04:55:42;99636.69;;;-0.82;61.68
74893;BME280;63446;56.272;43.922;2023-12-28T04:58:08;99647.06;;;-0.82;61.69
74893;BME280;63446;56.272;43.922;2023-12-28T05:00:36;99648.88;;;-0.82;61.68
74893;BME280;63446;56.272;43.922;2023-12-28T05:03:02;99651.47;;;-0.82;61.71
74893;BME280;63446;56.272;43.922;2023-12-28T05:05:29;99650.91;;;-0.84;61.84
74893;BME280;63446;56.272;43.922;2023-12-28T05:07:55;99654.47;;;-0.85;61.89
74893;BME280;63446;56.272;43.922;2023-12-28T05:10:21;99656.28;;;-0.86;61.88
74893;BME280;63446;56.272;43.922;2023-12-28T05:12:47;99669.47;;;-0.87;61.91
74893;BME280;63446;56.272;43.922;2023-12-28T05:15:13;99665.28;;;-0.88;61.96
74893;BME280;63446;56.272;43.922;2023-12-28T05:17:38;99668.88;;;-0.89;62.06
74893;BME280;63446;56.272;43.922;2023-12-28T05:20:05;99671.47;;;-0.89;61.96
74893;BME280;63446;56.272;43.922;2023-12-28T05:22:31;99673.28;;;-0.90;61.98
74893;BME280;63446;56.272;43.922;2023-12-28T05:24:57;99671.69;;;-0.91;61.98
74893;BME280;63446;56.272;43.922;2023-12-28T05:27:23;99654.19;;;-1.02;62.15
74893;BME280;63446;56.272;43.922;2023-12-28T05:29:50;99666.91;;;-0.94;62.19
74893;BME280;63446;56.272;43.922;2023-12-28T05:32:16;99672.69;;;-0.92;62.05
74893;BME280;63446;56.272;43.922;2023-12-28T05:34:42;99668.97;;;-1.03;62.04
74893;BME280;63446;56.272;43.922;2023-12-28T05:37:08;99668.00;;;-1.08;61.94
74893;BME280;63446;56.272;43.922;2023-12-28T05:39:34;99688.56;;;-1.07;61.99
74893;BME280;63446;56.272;43.922;2023-12-28T05:42:00;99681.63;;;-1.19;62.02
74893;BME280;63446;56.272;43.922;2023-12-28T05:44:26;99672.28;;;-1.27;62.07
74893;BME280;63446;56.272;43.922;2023-12-28T05:46:52;99681.69;;;-1.33;62.09
74893;BME280;63446;56.272;43.922;2023-12-28T05:49:18;99686.66;;;-1.31;62.24
74893;BME280;63446;56.272;43.922;2023-12-28T05:51:45;99696.88;;;-1.36;62.15
74893;BME280;63446;56.272;43.922;2023-12-28T05:54:10;99683.34;;;-1.38;62.28
74893;BME280;63446;56.272;43.922;2023-12-28T05:56:36;99697.09;;;-1.38;62.31
74893;BME280;63446;56.272;43.922;2023-12-28T05:59:03;99704.66;;;-1.36;62.27
74893;BME280;63446;56.272;43.922;2023-12-28T06:01:30;99698.47;;;-1.35;62.31
74893;BME280;63446;56.272;43.922;2023-12-28T06:03:55;99699.06;;;-1.33;62.32
74893;BME280;63446;56.272;43.922;2023-12-28T06:06:21;99695.03;;;-1.29;62.25
74893;BME280;63446;56.272;43.922;2023-12-28T06:08:47;99696.63;;;-1.28;62.17
74893;BME280;63446;56.272;43.922;2023-12-28T06:11:13;99700.63;;;-1.26;62.14
74893;BME280;63446;56.272;43.922;2023-12-28T06:13:40;99695.03;;;-1.29;62.15
74893;BME280;63446;56.272;43.922;2023-12-28T06:16:06;99711.53;;;-1.17;62.02
74893;BME280;63446;56.272;43.922;2023-12-28T06:18:32;99696.38;;;-1.20;61.98
74893;BME280;63446;56.272;43.922;2023-12-28T06:20:57;99708.69;;;-1.09;62.05
74893;BME280;63446;56.272;43.922;2023-12-28T06:23:23;99695.16;;;-1.11;61.97
74893;BME280;63446;56.272;43.922;2023-12-28T06:25:49;99706.66;;;-1.00;61.81
74893;BME280;63446;56.272;43.922;2023-12-28T06:28:15;99699.88;;;-1.01;61.77
74893;BME280;63446;56.272;43.922;2023-12-28T06:30:41;99714.78;;;-0.90;61.72
74893;BME280;63446;56.272;43.922;2023-12-28T06:33:06;99719.78;;;-0.88;61.52
74893;BME280;63446;56.272;43.922;2023-12-28T06:35:33;99719.50;;;-0.80;61.40
74893;BME280;63446;56.272;43.922;2023-12-28T06:37:59;99730.06;;;-0.75;61.35
74893;BME280;63446;56.272;43.922;2023-12-28T06:40:24;99724.44;;;-0.72;61.22
74893;BME280;63446;56.272;43.922;2023-12-28T06:42:51;99728.22;;;-0.68;61.06
74893;BME280;63446;56.272;43.922;2023-12-28T06:45:17;99730.38;;;-0.65;60.85
74893;BME280;63446;56.272;43.922;2023-12-28T06:47:43;99741.16;;;-0.61;60.76
74893;BME280;63446;56.272;43.922;2023-12-28T06:50:09;99740.69;;;-0.58;60.57
74893;BME280;63446;56.272;43.922;2023-12-28T06:52:35;99748.88;;;-0.55;60.55
74893;BME280;63446;56.272;43.922;2023-12-28T06:55:01;99756.63;;;-0.48;60.54
74893;BME280;63446;56.272;43.922;2023-12-28T06:57:31;99764.56;;;-0.43;60.33
74893;BME280;63446;56.272;43.922;2023-12-28T06:59:57;99753.56;;;-0.38;60.33
74893;BME280;63446;56.272;43.922;2023-12-28T07:02:25;99761.69;;;-0.35;60.24
74893;BME280;63446;56.272;43.922;2023-12-28T07:04:51;99758.13;;;-0.34;60.02
74893;BME280;63446;56.272;43.922;2023-12-28T07:07:16;99767.72;;;-0.34;59.92
74893;BME280;63446;56.272;43.922;2023-12-28T07:09:42;99770.72;;;-0.37;59.82
74893;BME280;63446;56.272;43.922;2023-12-28T07:12:08;99774.91;;;-0.36;59.67
74893;BME280;63446;56.272;43.922;2023-12-28T07:14:34;99771.28;;;-0.35;59.76
74893;BME280;63446;56.272;43.922;2023-12-28T07:17:02;99778.09;;;-0.34;59.54
74893;BME280;63446;56.272;43.922;2023-12-28T07:19:28;99773.88;;;-0.35;59.58
74893;BME280;63446;56.272;43.922;2023-12-28T07:21:53;99770.31;;;-0.34;59.57
74893;BME280;63446;56.272;43.922;2023-12-28T07:24:20;99772.44;;;-0.31;59.38
74893;BME280;63446;56.272;43.922;2023-12-28T07:26:46;99785.25;;;-0.30;59.28
74893;BME280;63446;56.272;43.922;2023-12-28T07:29:12;99781.41;;;-0.27;59.20
74893;BME280;63446;56.272;43.922;2023-12-28T07:31:39;99779.63;;;-0.27;59.15
74893;BME280;63446;56.272;43.922;2023-12-28T07:34:05;99779.00;;;-0.22;59.03
74893;BME280;63446;56.272;43.922;2023-12-28T07:36:31;99776.97;;;-0.20;58.85
74893;BME280;63446;56.272;43.922;2023-12-28T07:38:57;99767.97;;;-0.17;58.74
74893;BME280;63446;56.272;43.922;2023-12-28T07:41:24;99778.72;;;-0.14;58.69
74893;BME280;63446;56.272;43.922;2023-12-28T07:43:50;99785.09;;;-0.10;58.57
74893;BME280;63446;56.272;43.922;2023-12-28T07:46:16;99797.44;;;-0.05;58.36
74893;BME280;63446;56.272;43.922;2023-12-28T07:48:42;99786.84;;;-0.04;58.29
74893;BME280;63446;56.272;43.922;2023-12-28T07:51:08;99787.84;;;-0.05;58.32
74893;BME280;63446;56.272;43.922;2023-12-28T07:53:34;99786.19;;;0.01;58.05
74893;BME280;63446;56.272;43.922;2023-12-28T07:56:00;99793.19;;;0.01;58.09
74893;BME280;63446;56.272;43.922;2023-12-28T07:58:26;99789.81;;;0.00;57.97
74893;BME280;63446;56.272;43.922;2023-12-28T08:00:54;99790.59;;;0.01;57.94
74893;BME280;63446;56.272;43.922;2023-12-28T08:03:20;99793.03;;;-0.05;57.93
74893;BME280;63446;56.272;43.922;2023-12-28T08:05:46;99798.78;;;0.04;57.86
74893;BME280;63446;56.272;43.922;2023-12-28T08:08:12;99801.94;;;0.06;57.91
74893;BME280;63446;56.272;43.922;2023-12-28T08:10:39;99805.31;;;0.07;57.81
74893;BME280;63446;56.272;43.922;2023-12-28T08:13:04;99799.56;;;0.05;57.81
74893;BME280;63446;56.272;43.922;2023-12-28T08:15:30;99790.97;;;0.04;57.54
74893;BME280;63446;56.272;43.922;2023-12-28T08:17:56;99783.78;;;-0.01;57.55
74893;BME280;63446;56.272;43.922;2023-12-28T08:24:33;99803.38;;;0.02;57.48
74893;BME280;63446;56.272;43.922;2023-12-28T08:31:25;99798.66;;;-0.08;57.21
74893;BME280;63446;56.272;43.922;2023-12-28T08:38:17;99809.47;;;-0.11;57.00
74893;BME280;63446;56.272;43.922;2023-12-28T08:49:32;99826.22;;;-0.07;56.47
74893;BME280;63446;56.272;43.922;2023-12-28T08:56:23;99824.84;;;-0.09;56.27
74893;BME280;63446;56.272;43.922;2023-12-28T09:07:39;99831.56;;;-0.02;55.99
74893;BME280;63446;56.272;43.922;2023-12-28T09:14:33;99825.59;;;-0.02;55.70
74893;BME280;63446;56.272;43.922;2023-12-28T09:21:24;99835.38;;;-0.04;55.69
74893;BME280;63446;56.272;43.922;2023-12-28T09:28:17;99838.63;;;-0.09;55.43
74893;BME280;63446;56.272;43.922;2023-12-28T09:35:07;99835.88;;;-0.14;55.41
74893;BME280;63446;56.272;43.922;2023-12-28T09:42:04;99841.09;;;-0.20;55.28
74893;BME280;63446;56.272;43.922;2023-12-28T09:48:56;99843.06;;;-0.16;55.17
74893;BME280;63446;56.272;43.922;2023-12-28T09:55:46;99856.22;;;-0.11;55.04
74893;BME280;63446;56.272;43.922;2023-12-28T10:02:38;99845.47;;;-0.14;55.07
74893;BME280;63446;56.272;43.922;2023-12-28T10:09:29;99856.38;;;-0.06;54.68
74893;BME280;63446;56.272;43.922;2023-12-28T10:16:20;99853.41;;;-0.09;54.64
74893;BME280;63446;56.272;43.922;2023-12-28T10:23:10;99855.81;;;-0.08;54.67
74893;BME280;63446;56.272;43.922;2023-12-28T10:30:01;99848.91;;;0.05;54.44
74893;BME280;63446;56.272;43.922;2023-12-28T10:36:55;99842.66;;;0.12;54.21
74893;BME280;63446;56.272;43.922;2023-12-28T10:50:47;99846.06;;;0.13;54.09
74893;BME280;63446;56.272;43.922;2023-12-28T11:02:15;99850.59;;;0.17;54.01
74893;BME280;63446;56.272;43.922;2023-12-28T11:09:13;99848.84;;;0.11;53.89
74893;BME280;63446;56.272;43.922;2023-12-28T11:16:06;99845.16;;;0.01;53.79
74893;BME280;63446;56.272;43.922;2023-12-28T11:22:59;99854.81;;;-0.07;53.83
74893;BME280;63446;56.272;43.922;2023-12-28T11:29:51;99864.59;;;-0.09;53.82
74893;BME280;63446;56.272;43.922;2023-12-28T11:36:46;99862.84;;;-0.15;53.69
74893;BME280;63446;56.272;43.922;2023-12-28T11:43:39;99869.63;;;-0.14;53.68
74893;BME280;63446;56.272;43.922;2023-12-28T11:50:29;99864.34;;;-0.32;53.71
74893;BME280;63446;56.272;43.922;2023-12-28T11:57:19;99892.38;;;-0.47;53.65
74893;BME280;63446;56.272;43.922;2023-12-28T12:08:35;99887.78;;;-0.90;54.10
74893;BME280;63446;56.272;43.922;2023-12-28T12:15:26;99900.19;;;-0.99;54.42
74893;BME280;63446;56.272;43.922;2023-12-28T12:22:20;99913.34;;;-1.01;54.47
74893;BME280;63446;56.272;43.922;2023-12-28T12:28:59;99911.75;;;-1.08;54.62
74893;BME280;63446;56.272;43.922;2023-12-28T12:35:51;99913.56;;;-1.09;54.58
74893;BME280;63446;56.272;43.922;2023-12-28T12:42:28;99925.72;;;-1.09;54.73
74893;BME280;63446;56.272;43.922;2023-12-28T12:49:23;99929.72;;;-1.13;54.70
74893;BME280;63446;56.272;43.922;2023-12-28T12:56:00;99951.31;;;-1.26;54.66
74893;BME280;63446;56.272;43.922;2023-12-28T13:02:54;99951.91;;;-1.37;54.76
74893;BME280;63446;56.272;43.922;2023-12-28T13:09:33;99961.25;;;-1.43;54.87
74893;BME280;63446;56.272;43.922;2023-12-28T13:16:23;99953.09;;;-1.53;54.95
74893;BME280;63446;56.272;43.922;2023-12-28T13:23:01;99952.88;;;-1.58;55.08
74893;BME280;63446;56.272;43.922;2023-12-28T13:29:52;99952.31;;;-1.60;55.34
74893;BME280;63446;56.272;43.922;2023-12-28T13:36:30;99953.09;;;-1.60;55.30
74893;BME280;63446;56.272;43.922;2023-12-28T13:43:23;99956.28;;;-1.58;55.45
74893;BME280;63446;56.272;43.922;2023-12-28T13:50:01;99952.88;;;-1.58;55.39
74893;BME280;63446;56.272;43.922;2023-12-28T13:56:54;99951.09;;;-1.51;55.56
74893;BME280;63446;56.272;43.922;2023-12-28T14:07:47;99952.50;;;-1.49;55.58
74893;BME280;63446;56.272;43.922;2023-12-28T14:14:38;99955.88;;;-1.55;55.44
74893;BME280;63446;56.272;43.922;2023-12-28T14:21:18;99961.25;;;-1.63;55.61
74893;BME280;63446;56.272;43.922;2023-12-28T14:27:11;99971.63;;;-1.63;55.61
74893;BME280;63446;56.272;43.922;2023-12-28T14:29:37;99975.00;;;-1.62;55.61
74893;BME280;63446;56.272;43.922;2023-12-28T14:32:07;99967.84;;;-1.67;55.61
74893;BME280;63446;56.272;43.922;2023-12-28T14:34:35;99976.00;;;-1.63;55.72
74893;BME280;63446;56.272;43.922;2023-12-28T14:37:02;99969.03;;;-1.63;55.76
74893;BME280;63446;56.272;43.922;2023-12-28T14:39:28;99972.81;;;-1.59;55.81
74893;BME280;63446;56.272;43.922;2023-12-28T14:41:54;99968.03;;;-1.62;55.69
74893;BME280;63446;56.272;43.922;2023-12-28T14:44:22;99973.22;;;-1.55;55.67
74893;BME280;63446;56.272;43.922;2023-12-28T14:46:50;99956.88;;;-1.56;55.67
74893;BME280;63446;56.272;43.922;2023-12-28T14:49:19;99964.66;;;-1.56;55.63
74893;BME280;63446;56.272;43.922;2023-12-28T14:51:48;99963.06;;;-1.57;55.64
74893;BME280;63446;56.272;43.922;2023-12-28T14:54:14;99964.66;;;-1.56;55.76
74893;BME280;63446;56.272;43.922;2023-12-28T14:56:40;99945.31;;;-1.66;55.73
74893;BME280;63446;56.272;43.922;2023-12-28T14:59:06;99963.25;;;-1.58;55.61
74893;BME280;63446;56.272;43.922;2023-12-28T15:01:31;99947.31;;;-1.62;55.69
74893;BME280;63446;56.272;43.922;2023-12-28T15:03:59;99953.69;;;-1.58;55.73
74893;BME280;63446;56.272;43.922;2023-12-28T15:06:25;99943.13;;;-1.63;55.74
74893;BME280;63446;56.272;43.922;2023-12-28T15:08:51;99951.31;;;-1.53;55.72
74893;BME280;63446;56.272;43.922;2023-12-28T15:11:20;99945.34;;;-1.53;55.77
74893;BME280;63446;56.272;43.922;2023-12-28T15:13:48;99945.50;;;-1.55;55.68
74893;BME280;63446;56.272;43.922;2023-12-28T15:16:14;99953.69;;;-1.51;55.70
74893;BME280;63446;56.272;43.922;2023-12-28T15:18:41;99940.56;;;-1.50;55.70
74893;BME280;63446;56.272;43.922;2023-12-28T15:21:07;99941.34;;;-1.49;55.67
74893;BME280;63446;56.272;43.922;2023-12-28T15:23:33;99955.28;;;-1.43;55.73
74893;BME280;63446;56.272;43.922;2023-12-28T15:26:00;99950.72;;;-1.41;55.59
74893;BME280;63446;56.272;43.922;2023-12-28T15:28:26;99951.69;;;-1.42;55.66
74893;BME280;63446;56.272;43.922;2023-12-28T15:30:52;99954.28;;;-1.42;55.69
74893;BME280;63446;56.272;43.922;2023-12-28T15:33:18;99957.28;;;-1.45;55.69
74893;BME280;63446;56.272;43.922;2023-12-28T15:35:50;99962.47;;;-1.45;55.61
74893;BME280;63446;56.272;43.922;2023-12-28T15:38:17;99952.28;;;-1.47;55.61
74893;BME280;63446;56.272;43.922;2023-12-28T15:40:45;99964.47;;;-1.48;55.64
74893;BME280;63446;56.272;43.922;2023-12-28T15:43:11;99945.72;;;-1.50;55.57
74893;BME280;63446;56.272;43.922;2023-12-28T15:45:37;99944.13;;;-1.57;55.57
74893;BME280;63446;56.272;43.922;2023-12-28T15:48:03;99950.31;;;-1.52;55.66
74893;BME280;63446;56.272;43.922;2023-12-28T15:50:30;99943.31;;;-1.51;55.52
74893;BME280;63446;56.272;43.922;2023-12-28T15:52:56;99945.91;;;-1.51;55.58
74893;BME280;63446;56.272;43.922;2023-12-28T15:55:22;99939.72;;;-1.50;55.41
74893;BME280;63446;56.272;43.922;2023-12-28T15:57:49;99934.75;;;-1.52;55.37
74893;BME280;63446;56.272;43.922;2023-12-28T16:00:17;99944.13;;;-1.51;55.39
74893;BME280;63446;56.272;43.922;2023-12-28T16:02:45;99937.13;;;-1.50;55.28
74893;BME280;63446;56.272;43.922;2023-12-28T16:05:11;99937.13;;;-1.50;55.28
74893;BME280;63446;56.272;43.922;2023-12-28T16:07:36;99930.19;;;-1.50;55.21
74893;BME280;63446;56.272;43.922;2023-12-28T16:10:03;99937.97;;;-1.50;55.25
74893;BME280;63446;56.272;43.922;2023-12-28T16:12:31;99932.94;;;-1.51;55.24
74893;BME280;63446;56.272;43.922;2023-12-28T16:14:57;99930.97;;;-1.49;55.04
74893;BME280;63446;56.272;43.922;2023-12-28T16:17:24;99937.97;;;-1.50;54.96
74893;BME280;63446;56.272;43.922;2023-12-28T16:19:51;99942.31;;;-1.50;55.03
74893;BME280;63446;56.272;43.922;2023-12-28T16:22:17;99947.31;;;-1.49;55.02
74893;BME280;63446;56.272;43.922;2023-12-28T16:24:43;99930.97;;;-1.49;54.98
74893;BME280;63446;56.272;43.922;2023-12-28T16:27:09;99945.31;;;-1.47;55.00
74893;BME280;63446;56.272;43.922;2023-12-28T16:29:35;99942.72;;;-1.47;54.99
74893;BME280;63446;56.272;43.922;2023-12-28T16:32:01;99936.56;;;-1.45;54.91
74893;BME280;63446;56.272;43.922;2023-12-28T16:34:30;99942.53;;;-1.45;55.03
74893;BME280;63446;56.272;43.922;2023-12-28T16:36:56;99941.75;;;-1.45;55.06
74893;BME280;63446;56.272;43.922;2023-12-28T16:39:22;99936.34;;;-1.44;55.09
74893;BME280;63446;56.272;43.922;2023-12-28T16:41:47;99939.16;;;-1.45;55.15
74893;BME280;63446;56.272;43.922;2023-12-28T16:44:13;99944.91;;;-1.43;55.21
74893;BME280;63446;56.272;43.922;2023-12-28T16:46:45;99937.34;;;-1.45;55.23
74893;BME280;63446;56.272;43.922;2023-12-28T16:49:11;99938.16;;;-1.44;55.46
74893;BME280;63446;56.272;43.922;2023-12-28T16:51:37;99936.56;;;-1.45;55.53
74893;BME280;63446;56.272;43.922;2023-12-28T16:54:03;99933.75;;;-1.44;55.66
74893;BME280;63446;56.272;43.922;2023-12-28T16:56:29;99938.94;;;-1.44;55.61